Grand Isle, Vermont
Current Conditions -  °F | °C
As of 11:53 AM on Tuesday 21 Oct 2014 (Local Time) from KPBG Reporting Station
Light Rain Light Rain  
Wind Chill: 45°   Ceiling: 900
Heat Index: 49°   Visibility: 9mi
Dew Point: 47°   Wind: 8mph
Humidity: 93%   Direction: 360°N
Pressure: 29.99"   Gusts: NA
Location:  44.72°N, 73.29°W
Report Text: KPBG 211553Z AUTO 36007KT 9SM -RA BKN009 BKN017 OVC055 09/08 A2999 RMK AO2 RAB14 CIG 007V014 SLP157 P0001 T00940083
Loading
Personal Weather Stations






























Interactive Weather Map
Tropical Storm Tracking
New forecast layout! Learn more

10-Day Weather Forecast

Advertisements
Track Severe Weather on mobile